Weather observations for the past three days for
Del Rio, Del Rio International Airport
Metric (Imperial)
Date Time (cdt) Wind (kph) Vis. (km) Weather Sky Cond. Temperature (ºC) Relative Humidity Wind Chill (°C) Heat Index (°C) Pressure Precipitation (cm)
Air Dwpt 6 hour altimeter (cm) sea level (mb) 1 hr 3 hr 6 hr
Max. Min.
31 01:53 E 26 G 43 16.09 Fair CLR 30 21.1 59% 33 76.02 1012.3
31 00:53 E 20 G 37 16.09 Fair CLR 31.1 20 36.7 31.1 52% 33 76 1011.9
30 23:53 E 20 G 37 16.09 Fair CLR 31.7 17.8 43% 32 75.97 1011.6
30 22:53 E 15 16.09 Fair CLR 32.2 17.2 41% 33 75.95 1011.1
30 21:53 E 13 16.09 Fair CLR 33.3 16.7 37% 34 75.9 1010.8
30 20:53 E 17 16.09 Fair CLR 34.4 16.7 35% 35 75.84 1010.0
30 19:53 E 19 G 31 16.09 Fair CLR 35.6 15.6 30% 36 75.82 1009.6
30 18:53 E 22 G 31 16.09 A Few Clouds FEW085 36.7 16.1 37.8 33.3 29% 37 75.79 1009.3
30 17:53 SE 19 G 35 16.09 A Few Clouds FEW080 37.8 16.7 29% 39 75.82 1009.4
30 16:53 E 19 16.09 Partly Cloudy SCT075 37.2 18.3 33% 39 75.82 1009.4
30 15:53 SE 19 G 35 16.09 Fair CLR 37.2 18.3 33% 39 75.9 1010.5
30 14:53 SE 22 G 39 16.09 Fair CLR 36.7 18.9 35% 39 75.97 1011.6
30 13:53 SE 19 G 41 16.09 Fair CLR 35 20.6 43% 38 76.05 1012.6
30 12:53 SE 22 G 31 16.09 Fair CLR 33.9 22.2 33.9 25.6 50% 38 76.15 1013.9
30 11:53 SE 17 16.09 Fair CLR 31.7 22.2 57% 36 76.2 1014.7
30 10:53 SE 15 16.09 Fair CLR 29.4 22.2 65% 33 76.23 1014.9
30 09:53 SE 15 16.09 Fair CLR 27.8 22.2 72% 30 76.23 1015.1
30 08:53 E 20 16.09 Fair CLR 26.1 21.7 77% 28 76.23 1015.0
30 07:53 E 13 16.09 Fair CLR 25.6 21.1 76% 27 76.2 1014.7
30 06:53 E 11 16.09 Fair CLR 26.1 21.1 30 26.1 74% 28 76.15 1013.9
30 05:53 E 15 16.09 Fair CLR 26.7 21.1 71% 28 76.12 1013.5
30 04:53 E 15 16.09 Fair CLR 27.2 21.1 69% 29 76.1 1013.4
30 03:53 E 11 16.09 Fair CLR 27.8 21.1 67% 30 76.1 1013.4
30 02:53 E 17 16.09 Fair CLR 28.3 20.6 63% 30 76.1 1013.2
30 01:53 SE 19 16.09 Fair CLR 29.4 20.6 59% 32 76.12 1013.5
30 00:53 SE 22 G 37 16.09 Fair CLR 30 20 36.7 30 55% 32 76.12 1013.6
29 23:53 E 17 16.09 Fair CLR 31.1 18.3 46% 32 76.1 1013.4
29 22:53 E 15 16.09 Fair CLR 32.2 17.2 41% 33 76.07 1012.9
29 21:53 E 17 16.09 Fair CLR 32.8 17.8 41% 34 76.02 1012.4
29 20:53 E 17 16.09 Fair CLR 33.9 17.2 37% 35 75.97 1011.8
29 19:53 E 20 G 31 16.09 Fair CLR 35.6 16.7 32% 36 75.95 1011.3
29 18:53 E 19 16.09 Fair CLR 36.7 16.7 37.8 33.3 31% 37 75.95 1011.1
29 17:53 E 20 16.09 Fair CLR 37.2 16.7 30% 38 75.95 1011.2
29 16:53 SE 19 G 33 16.09 Fair CLR 37.2 17.2 31% 38 76 1011.9
29 15:53 Vrbl 11 G 26 16.09 Fair CLR 36.7 18.9 35% 39 76.07 1012.9
29 14:53 SE 20 G 35 16.09 Fair CLR 36.1 19.4 37% 38 76.15 1013.8
29 13:53 SE 17 16.09 Fair CLR 35 20 41% 38 76.23 1014.9
29 12:53 SE 20 16.09 Fair CLR 33.3 21.7 33.9 25 51% 37 76.3 1015.9
29 11:53 E 11 G 28 16.09 Fair CLR 31.1 21.7 57% 34 76.35 1016.5
29 10:53 SE 17 16.09 Fair CLR 30 21.7 61% 33 76.35 1016.7
29 09:53 SE 15 16.09 Fair CLR 28.3 21.7 67% 31 76.35 1016.6
29 07:53 E 11 16.09 Fair CLR 25 20.6 77% 26 76.33 1016.3
29 06:53 E 15 16.09 Fair CLR 25 20 30.6 25 74% 26 76.28 1015.7
29 05:53 E 11 G 28 16.09 Fair CLR 25.6 19.4 69% 27 76.25 1015.4
29 04:53 E 15 16.09 Fair CLR 26.1 19.4 67% 27 76.25 1015.2
29 03:53 E 17 16.09 Fair CLR 26.1 19.4 67% 27 76.23 1014.9
29 02:53 E 9 16.09 Fair CLR 27.2 20 65% 29 76.2 1014.6
29 01:53 E 17 16.09 Fair CLR 28.3 20 61% 30 76.25 1015.2
29 00:53 E 28 G 41 16.09 Fair CLR 30.6 18.9 37.2 30.6 50% 32 76.23 1015.0
28 23:53 E 24 G 41 16.09 A Few Clouds FEW120 31.1 18.9 48% 32 76.2 1014.6
28 22:53 E 17 16.09 Fair CLR 31.1 18.9 48% 32 76.15 1014.2
28 21:53 E 13 16.09 Fair CLR 31.7 18.9 47% 33 76.1 1013.3
28 20:53 NE 19 16.09 Fair CLR 32.8 18.9 44% 34 76.05 1012.6
28 19:53 NE 17 16.09 Fair CLR 35 18.3 37% 36 76 1012.0
28 18:53 E 11 16.09 Fair CLR 37.2 17.2 37.8 32.2 31% 38 76 1011.9
28 17:53 E 15 16.09 Fair CLR 37.8 17.8 31% 39 75.97 1011.6
28 16:53 S 13 16.09 Fair CLR 37.2 17.8 32% 39 76.02 1012.1
28 15:53 SE 19 16.09 Fair CLR 36.7 19.4 36% 39 76.1 1013.3
28 14:53 SE 17 16.09 Fair CLR 35 19.4 40% 37 76.2 1014.6
28 13:53 S 7 16.09 Fair CLR 33.9 21.1 47% 37 76.28 1015.7
28 12:53 SE 6 16.09 Fair CLR 32.2 20.6 32.8 23.9 50% 35 76.35 1016.9
28 11:53 Calm 16.09 Fair CLR 31.1 20.6 54% 34 76.4 1017.3
28 10:53 SE 13 16.09 Fair CLR 29.4 20.6 59% 32 76.4 1017.3
28 09:53 E 11 16.09 Fair CLR 28.3 20.6 63% 30 76.38 1017.1
28 08:53 NE 7 16.09 Fair CLR 26.7 20.6 69% 28 76.35 1016.7
28 07:53 NE 6 16.09 Fair CLR 25 21.7 82% 26 76.3 1016.2
28 06:53 Calm 16.09 Fair CLR 23.9 22.2 28.3 23.9 90% 23 76.25 1015.5 0.46
28 05:53 NW 6 16.09 Fair CLR 24.4 21.1 82% 25 76.23 1014.9
28 04:53 W 6 16.09 Fair CLR 24.4 22.2 88% 25 76.23 1015.1
28 03:53 E 9 16.09 Fair CLR 25.6 20.6 74% 27 76.2 1014.8 0.46
28 02:53 E 20 16.09 Thunderstorm in Vicinity FEW055 FEW100 25 21.1 79% 26 76.23 1014.9 0.46
Date Time (cdt) Wind (kph) Vis. (km) Weather Sky Cond. Air Dwpt Max. Min. Relative Humidity Wind Chill (°C) Heat Index (°C) altimeter (cm) sea level (mb) 1 hr 3 hr 6 hr
6 hour
Temperature (ºC) Pressure Precipitation (cm)